sensor_id;sensor_type;location;lat;lon;timestamp;pressure;altitude;pressure_sealevel;temperature;humidity
43553;BME280;29153;42.696;23.218;2022-11-20T00:59:51;93720.64;;;16.97;71.54
43553;BME280;29153;42.696;23.218;2022-11-20T01:02:19;93731.55;;;16.92;71.20
43553;BME280;29153;42.696;23.218;2022-11-20T01:04:46;93736.00;;;16.88;71.44
43553;BME280;29153;42.696;23.218;2022-11-20T01:07:14;93736.52;;;16.81;71.52
43553;BME280;29153;42.696;23.218;2022-11-20T01:09:41;93738.65;;;16.76;72.09
43553;BME280;29153;42.696;23.218;2022-11-20T01:12:09;93729.17;;;16.72;72.15
43553;BME280;29153;42.696;23.218;2022-11-20T01:14:36;93717.45;;;16.71;72.22
43553;BME280;29153;42.696;23.218;2022-11-20T01:17:04;93713.88;;;16.73;71.75
43553;BME280;29153;42.696;23.218;2022-11-20T01:19:31;93703.07;;;16.69;72.46
43553;BME280;29153;42.696;23.218;2022-11-20T01:22:03;93705.20;;;16.64;72.29
43553;BME280;29153;42.696;23.218;2022-11-20T01:24:31;93678.89;;;16.66;72.20
43553;BME280;29153;42.696;23.218;2022-11-20T01:26:59;93685.92;;;16.70;72.07
43553;BME280;29153;42.696;23.218;2022-11-20T01:29:26;93685.13;;;16.70;71.36
43553;BME280;29153;42.696;23.218;2022-11-20T01:31:54;93683.03;;;16.75;71.15
43553;BME280;29153;42.696;23.218;2022-11-20T01:34:23;93680.89;;;16.63;71.12
43553;BME280;29153;42.696;23.218;2022-11-20T01:36:52;93680.89;;;16.63;71.12
43553;BME280;29153;42.696;23.218;2022-11-20T01:39:22;93676.00;;;16.71;70.42
43553;BME280;29153;42.696;23.218;2022-11-20T01:41:55;93669.11;;;16.76;70.59
43553;BME280;29153;42.696;23.218;2022-11-20T01:44:55;93669.09;;;16.70;70.90
43553;BME280;29153;42.696;23.218;2022-11-20T01:47:41;93676.22;;;16.66;70.76
43553;BME280;29153;42.696;23.218;2022-11-20T01:50:18;93673.43;;;16.62;71.02
43553;BME280;29153;42.696;23.218;2022-11-20T01:52:57;93685.23;;;16.61;70.51
43553;BME280;29153;42.696;23.218;2022-11-20T01:55:23;93686.47;;;16.64;70.35
43553;BME280;29153;42.696;23.218;2022-11-20T01:57:51;93694.03;;;16.62;70.50
43553;BME280;29153;42.696;23.218;2022-11-20T02:00:19;93693.92;;;16.58;70.92
43553;BME280;29153;42.696;23.218;2022-11-20T02:21:35;93682.73;;;16.89;69.28
43553;BME280;29153;42.696;23.218;2022-11-20T02:24:06;93692.40;;;16.75;68.97
43553;BME280;29153;42.696;23.218;2022-11-20T02:29:15;93701.64;;;16.78;68.93
43553;BME280;29153;42.696;23.218;2022-11-20T02:31:43;93699.75;;;16.72;69.26
43553;BME280;29153;42.696;23.218;2022-11-20T02:34:12;93683.13;;;16.73;68.33
43553;BME280;29153;42.696;23.218;2022-11-20T02:36:40;93686.94;;;16.72;69.41
43553;BME280;29153;42.696;23.218;2022-11-20T02:39:09;93703.30;;;16.64;69.64
43553;BME280;29153;42.696;23.218;2022-11-20T02:41:38;93710.89;;;16.68;70.00
43553;BME280;29153;42.696;23.218;2022-11-20T02:44:06;93721.59;;;16.68;69.96
43553;BME280;29153;42.696;23.218;2022-11-20T02:46:34;93713.53;;;16.62;70.21
43553;BME280;29153;42.696;23.218;2022-11-20T02:49:03;93708.19;;;16.62;70.41
43553;BME280;29153;42.696;23.218;2022-11-20T02:51:31;93696.94;;;16.63;70.68
43553;BME280;29153;42.696;23.218;2022-11-20T02:53:59;93710.08;;;16.62;70.68
43553;BME280;29153;42.696;23.218;2022-11-20T02:56:27;93717.98;;;16.58;71.20
43553;BME280;29153;42.696;23.218;2022-11-20T02:58:54;93716.50;;;16.55;72.32
43553;BME280;29153;42.696;23.218;2022-11-20T03:01:22;93713.56;;;16.48;72.31
43553;BME280;29153;42.696;23.218;2022-11-20T03:03:49;93716.66;;;16.37;72.86
43553;BME280;29153;42.696;23.218;2022-11-20T03:06:18;93722.24;;;16.38;73.47
43553;BME280;29153;42.696;23.218;2022-11-20T03:08:46;93714.11;;;16.41;72.82
43553;BME280;29153;42.696;23.218;2022-11-20T03:11:13;93711.20;;;16.34;73.00
43553;BME280;29153;42.696;23.218;2022-11-20T03:13:41;93722.09;;;16.35;72.87
43553;BME280;29153;42.696;23.218;2022-11-20T03:16:17;93720.67;;;16.37;72.97
43553;BME280;29153;42.696;23.218;2022-11-20T03:18:45;93675.20;;;16.05;73.07
43553;BME280;29153;42.696;23.218;2022-11-20T03:21:14;93706.14;;;16.26;73.91
43553;BME280;29153;42.696;23.218;2022-11-20T03:23:42;93706.14;;;16.26;73.91
43553;BME280;29153;42.696;23.218;2022-11-20T03:28:41;93703.77;;;16.19;74.11
43553;BME280;29153;42.696;23.218;2022-11-20T03:31:12;93700.52;;;16.13;74.63
43553;BME280;29153;42.696;23.218;2022-11-20T03:33:40;93713.23;;;16.16;74.09
43553;BME280;29153;42.696;23.218;2022-11-20T03:36:15;93722.13;;;16.14;74.58
43553;BME280;29153;42.696;23.218;2022-11-20T03:38:39;93717.60;;;16.21;73.21
43553;BME280;29153;42.696;23.218;2022-11-20T03:41:09;93717.60;;;16.21;73.21
43553;BME280;29153;42.696;23.218;2022-11-20T03:43:38;93717.92;;;16.19;73.39
43553;BME280;29153;42.696;23.218;2022-11-20T03:46:06;93727.50;;;16.20;72.94
43553;BME280;29153;42.696;23.218;2022-11-20T03:48:34;93719.69;;;16.15;73.27
43553;BME280;29153;42.696;23.218;2022-11-20T03:51:14;93714.50;;;16.25;72.45
43553;BME280;29153;42.696;23.218;2022-11-20T03:53:38;93716.74;;;16.29;72.40
43553;BME280;29153;42.696;23.218;2022-11-20T03:56:06;93726.41;;;16.21;72.63
43553;BME280;29153;42.696;23.218;2022-11-20T03:58:36;93735.64;;;16.24;72.63
43553;BME280;29153;42.696;23.218;2022-11-20T04:01:17;93738.83;;;16.17;72.80
43553;BME280;29153;42.696;23.218;2022-11-20T04:03:42;93748.09;;;16.20;72.71
43553;BME280;29153;42.696;23.218;2022-11-20T04:06:12;93744.39;;;16.12;73.25
43553;BME280;29153;42.696;23.218;2022-11-20T04:08:41;93750.52;;;16.13;73.07
43553;BME280;29153;42.696;23.218;2022-11-20T04:11:13;93754.12;;;16.02;73.86
43553;BME280;29153;42.696;23.218;2022-11-20T04:13:42;93738.88;;;16.03;73.53
43553;BME280;29153;42.696;23.218;2022-11-20T04:16:10;93738.88;;;16.03;73.53
43553;BME280;29153;42.696;23.218;2022-11-20T04:18:38;93726.63;;;16.02;73.79
43553;BME280;29153;42.696;23.218;2022-11-20T04:21:06;93726.63;;;16.02;73.79
43553;BME280;29153;42.696;23.218;2022-11-20T04:23:34;93730.74;;;15.99;73.43
43553;BME280;29153;42.696;23.218;2022-11-20T04:26:09;93724.84;;;16.00;73.48
43553;BME280;29153;42.696;23.218;2022-11-20T04:28:38;93727.52;;;16.00;72.78
43553;BME280;29153;42.696;23.218;2022-11-20T04:31:15;93726.31;;;16.03;72.85
43553;BME280;29153;42.696;23.218;2022-11-20T04:33:42;93730.20;;;16.06;73.01
43553;BME280;29153;42.696;23.218;2022-11-20T04:36:24;93724.08;;;16.05;73.09
43553;BME280;29153;42.696;23.218;2022-11-20T04:38:54;93737.44;;;16.05;73.13
43553;BME280;29153;42.696;23.218;2022-11-20T04:41:23;93748.11;;;15.99;73.40
43553;BME280;29153;42.696;23.218;2022-11-20T04:43:53;93735.85;;;15.98;73.64
43553;BME280;29153;42.696;23.218;2022-11-20T04:46:23;93730.94;;;15.94;74.38
43553;BME280;29153;42.696;23.218;2022-11-20T04:48:50;93732.16;;;15.97;74.33
43553;BME280;29153;42.696;23.218;2022-11-20T04:51:17;93734.16;;;15.93;74.24
43553;BME280;29153;42.696;23.218;2022-11-20T04:53:45;93728.92;;;15.91;74.34
43553;BME280;29153;42.696;23.218;2022-11-20T04:56:13;93720.20;;;15.88;74.73
43553;BME280;29153;42.696;23.218;2022-11-20T04:58:41;93709.52;;;15.88;75.09
43553;BME280;29153;42.696;23.218;2022-11-20T05:01:15;93707.82;;;15.83;75.29
43553;BME280;29153;42.696;23.218;2022-11-20T05:03:43;93707.70;;;15.80;75.10
43553;BME280;29153;42.696;23.218;2022-11-20T05:06:11;93695.45;;;15.79;75.76
43553;BME280;29153;42.696;23.218;2022-11-20T05:08:39;93699.88;;;15.75;75.77
43553;BME280;29153;42.696;23.218;2022-11-20T05:11:12;93678.30;;;15.74;75.87
43553;BME280;29153;42.696;23.218;2022-11-20T05:13:40;93689.41;;;15.70;77.17
43553;BME280;29153;42.696;23.218;2022-11-20T05:16:12;93689.41;;;15.70;77.17
43553;BME280;29153;42.696;23.218;2022-11-20T05:18:41;93611.86;;;15.16;77.38
43553;BME280;29153;42.696;23.218;2022-11-20T05:21:09;93685.67;;;15.62;77.86
43553;BME280;29153;42.696;23.218;2022-11-20T05:23:37;93705.13;;;15.57;78.20
43553;BME280;29153;42.696;23.218;2022-11-20T05:26:05;93709.99;;;15.55;78.30
43553;BME280;29153;42.696;23.218;2022-11-20T05:28:33;93701.02;;;15.59;78.46
43553;BME280;29153;42.696;23.218;2022-11-20T05:31:04;93690.65;;;15.58;78.30
43553;BME280;29153;42.696;23.218;2022-11-20T05:33:32;93701.22;;;15.45;78.94
43553;BME280;29153;42.696;23.218;2022-11-20T05:36:01;93704.13;;;15.46;79.13
43553;BME280;29153;42.696;23.218;2022-11-20T05:38:29;93705.35;;;15.49;78.91
43553;BME280;29153;42.696;23.218;2022-11-20T05:41:15;93705.63;;;15.50;78.95
43553;BME280;29153;42.696;23.218;2022-11-20T05:43:44;93683.72;;;15.51;79.17
43553;BME280;29153;42.696;23.218;2022-11-20T05:46:14;93688.79;;;15.49;78.52
43553;BME280;29153;42.696;23.218;2022-11-20T05:48:43;93688.00;;;15.49;78.56
43553;BME280;29153;42.696;23.218;2022-11-20T05:51:14;93698.09;;;15.52;78.76
43553;BME280;29153;42.696;23.218;2022-11-20T05:53:42;93706.80;;;15.46;78.86
43553;BME280;29153;42.696;23.218;2022-11-20T05:56:12;93691.45;;;15.49;78.76
43553;BME280;29153;42.696;23.218;2022-11-20T05:58:40;93691.78;;;15.57;78.22
43553;BME280;29153;42.696;23.218;2022-11-20T06:01:19;93705.91;;;15.57;78.44
43553;BME280;29153;42.696;23.218;2022-11-20T06:03:48;93705.33;;;15.58;78.45
43553;BME280;29153;42.696;23.218;2022-11-20T06:06:17;93715.45;;;15.58;78.41
43553;BME280;29153;42.696;23.218;2022-11-20T06:08:45;93725.04;;;15.59;78.19
43553;BME280;29153;42.696;23.218;2022-11-20T06:11:14;93724.94;;;15.62;78.32
43553;BME280;29153;42.696;23.218;2022-11-20T06:13:42;93742.28;;;15.62;78.36
43553;BME280;29153;42.696;23.218;2022-11-20T06:16:11;93732.86;;;15.64;78.30
43553;BME280;29153;42.696;23.218;2022-11-20T06:18:39;93732.86;;;15.64;78.30
43553;BME280;29153;42.696;23.218;2022-11-20T06:21:12;93725.77;;;15.68;78.68
43553;BME280;29153;42.696;23.218;2022-11-20T06:23:37;93738.15;;;15.73;77.98
43553;BME280;29153;42.696;23.218;2022-11-20T06:26:11;93735.97;;;15.81;77.66
43553;BME280;29153;42.696;23.218;2022-11-20T06:28:35;93743.80;;;15.86;77.79
43553;BME280;29153;42.696;23.218;2022-11-20T06:31:03;93752.96;;;15.91;77.38
43553;BME280;29153;42.696;23.218;2022-11-20T06:33:31;93751.98;;;15.96;77.00
43553;BME280;29153;42.696;23.218;2022-11-20T06:35:59;93749.88;;;16.01;77.36
43553;BME280;29153;42.696;23.218;2022-11-20T06:38:28;93748.61;;;16.13;76.93
43553;BME280;29153;42.696;23.218;2022-11-20T06:40:56;93748.66;;;16.19;76.45
43553;BME280;29153;42.696;23.218;2022-11-20T06:43:24;93750.47;;;16.27;75.91
43553;BME280;29153;42.696;23.218;2022-11-20T06:45:53;93765.22;;;16.39;75.82
43553;BME280;29153;42.696;23.218;2022-11-20T06:48:21;93755.65;;;16.59;74.43
43553;BME280;29153;42.696;23.218;2022-11-20T06:50:48;93765.63;;;16.83;73.01
43553;BME280;29153;42.696;23.218;2022-11-20T06:53:16;93779.53;;;17.21;72.38
43553;BME280;29153;42.696;23.218;2022-11-20T06:55:45;93765.94;;;17.26;71.48
43553;BME280;29153;42.696;23.218;2022-11-20T06:58:14;93757.80;;;17.35;71.15
43553;BME280;29153;42.696;23.218;2022-11-20T07:00:42;93746.32;;;17.53;70.56
43553;BME280;29153;42.696;23.218;2022-11-20T07:03:11;93748.54;;;17.51;70.26
43553;BME280;29153;42.696;23.218;2022-11-20T07:05:39;93766.75;;;17.82;69.56
43553;BME280;29153;42.696;23.218;2022-11-20T07:08:07;93772.34;;;17.70;69.82
43553;BME280;29153;42.696;23.218;2022-11-20T07:10:35;93767.50;;;17.34;71.01
43553;BME280;29153;42.696;23.218;2022-11-20T07:13:03;93777.77;;;17.38;71.07
43553;BME280;29153;42.696;23.218;2022-11-20T07:15:31;93775.41;;;17.18;71.91
43553;BME280;29153;42.696;23.218;2022-11-20T07:18:01;93769.67;;;16.95;73.11
43553;BME280;29153;42.696;23.218;2022-11-20T07:20:29;93774.09;;;16.79;73.68
43553;BME280;29153;42.696;23.218;2022-11-20T07:22:57;93771.50;;;16.70;74.46
43553;BME280;29153;42.696;23.218;2022-11-20T07:25:26;93769.58;;;16.65;74.79
43553;BME280;29153;42.696;23.218;2022-11-20T07:27:58;93761.56;;;16.44;75.54
43553;BME280;29153;42.696;23.218;2022-11-20T07:32:52;93764.14;;;16.26;76.93
43553;BME280;29153;42.696;23.218;2022-11-20T07:35:20;93779.80;;;16.15;77.13
43553;BME280;29153;42.696;23.218;2022-11-20T07:37:48;93774.20;;;16.08;77.73
43553;BME280;29153;42.696;23.218;2022-11-20T07:40:16;93783.34;;;16.13;76.99
43553;BME280;29153;42.696;23.218;2022-11-20T07:42:52;93780.67;;;16.13;77.59
43553;BME280;29153;42.696;23.218;2022-11-20T07:45:21;93777.98;;;16.28;76.88
43553;BME280;29153;42.696;23.218;2022-11-20T07:47:49;93773.37;;;16.22;75.75
43553;BME280;29153;42.696;23.218;2022-11-20T07:50:17;93786.11;;;16.25;76.17
43553;BME280;29153;42.696;23.218;2022-11-20T07:52:44;93780.97;;;16.26;75.24
43553;BME280;29153;42.696;23.218;2022-11-20T07:55:12;93777.44;;;16.34;75.10
43553;BME280;29153;42.696;23.218;2022-11-20T07:57:40;93789.39;;;16.37;74.76
43553;BME280;29153;42.696;23.218;2022-11-20T08:00:09;93782.63;;;16.46;74.62
43553;BME280;29153;42.696;23.218;2022-11-20T08:02:39;93798.01;;;16.49;74.17
43553;BME280;29153;42.696;23.218;2022-11-20T08:05:07;93811.97;;;16.54;74.36
43553;BME280;29153;42.696;23.218;2022-11-20T08:07:42;93798.55;;;16.42;74.45
43553;BME280;29153;42.696;23.218;2022-11-20T08:10:12;93808.23;;;16.61;74.78
43553;BME280;29153;42.696;23.218;2022-11-20T08:12:46;93810.52;;;16.71;74.81
43553;BME280;29153;42.696;23.218;2022-11-20T08:15:32;93802.56;;;16.63;75.14
43553;BME280;29153;42.696;23.218;2022-11-20T08:18:04;93810.16;;;16.67;75.59
43553;BME280;29153;42.696;23.218;2022-11-20T08:20:32;93817.55;;;16.76;75.50
43553;BME280;29153;42.696;23.218;2022-11-20T08:23:01;93805.28;;;16.75;77.35
43553;BME280;29153;42.696;23.218;2022-11-20T08:25:30;93814.95;;;16.94;77.61
43553;BME280;29153;42.696;23.218;2022-11-20T08:27:59;93732.27;;;16.48;78.88
43553;BME280;29153;42.696;23.218;2022-11-20T08:30:28;93821.77;;;16.71;80.15
43553;BME280;29153;42.696;23.218;2022-11-20T08:33:03;93821.52;;;16.64;81.38
43553;BME280;29153;42.696;23.218;2022-11-20T08:35:35;93819.67;;;16.56;82.04
43553;BME280;29153;42.696;23.218;2022-11-20T08:38:05;93820.27;;;16.26;84.60
43553;BME280;29153;42.696;23.218;2022-11-20T08:40:34;93818.79;;;16.02;86.69
43553;BME280;29153;42.696;23.218;2022-11-20T08:43:01;93833.72;;;16.03;86.60
43553;BME280;29153;42.696;23.218;2022-11-20T08:45:29;93845.55;;;15.93;88.04
43553;BME280;29153;42.696;23.218;2022-11-20T08:48:01;93853.06;;;15.85;88.93
43553;BME280;29153;42.696;23.218;2022-11-20T08:50:28;93846.68;;;15.54;91.27
43553;BME280;29153;42.696;23.218;2022-11-20T08:53:05;93845.21;;;15.42;93.76
43553;BME280;29153;42.696;23.218;2022-11-20T08:55:33;93847.00;;;15.21;94.22
43553;BME280;29153;42.696;23.218;2022-11-20T08:58:04;93844.47;;;15.01;95.81
43553;BME280;29153;42.696;23.218;2022-11-20T09:00:33;93842.40;;;15.07;97.28
43553;BME280;29153;42.696;23.218;2022-11-20T09:03:01;93838.66;;;14.99;97.54
43553;BME280;29153;42.696;23.218;2022-11-20T09:05:28;93834.25;;;15.03;98.20
43553;BME280;29153;42.696;23.218;2022-11-20T09:07:59;93860.69;;;15.02;99.56
43553;BME280;29153;42.696;23.218;2022-11-20T09:10:27;93842.90;;;15.00;99.00
43553;BME280;29153;42.696;23.218;2022-11-20T09:12:55;93856.63;;;15.04;99.56
43553;BME280;29153;42.696;23.218;2022-11-20T09:15:23;93869.17;;;15.04;98.54
43553;BME280;29153;42.696;23.218;2022-11-20T09:17:53;93874.42;;;14.98;99.75
43553;BME280;29153;42.696;23.218;2022-11-20T09:20:20;93879.30;;;14.96;100.00
43553;BME280;29153;42.696;23.218;2022-11-20T09:22:48;93866.97;;;14.97;100.00
43553;BME280;29153;42.696;23.218;2022-11-20T09:25:16;93861.73;;;14.95;100.00
43553;BME280;29153;42.696;23.218;2022-11-20T09:27:44;93863.78;;;14.81;100.00
43553;BME280;29153;42.696;23.218;2022-11-20T09:30:13;93858.69;;;14.73;100.00
43553;BME280;29153;42.696;23.218;2022-11-20T09:32:42;93847.17;;;14.75;100.00
43553;BME280;29153;42.696;23.218;2022-11-20T09:35:10;93836.50;;;14.84;100.00
43553;BME280;29153;42.696;23.218;2022-11-20T09:37:38;93827.94;;;14.93;100.00
43553;BME280;29153;42.696;23.218;2022-11-20T09:40:06;93815.62;;;14.86;100.00
43553;BME280;29153;42.696;23.218;2022-11-20T09:42:48;93800.70;;;14.93;100.00
43553;BME280;29153;42.696;23.218;2022-11-20T09:48:12;93793.81;;;15.16;99.15
43553;BME280;29153;42.696;23.218;2022-11-20T09:50:49;93791.13;;;15.01;97.90
43553;BME280;29153;42.696;23.218;2022-11-20T09:53:42;93784.95;;;15.18;99.38
43553;BME280;29153;42.696;23.218;2022-11-20T09:56:08;93767.75;;;15.21;98.15
43553;BME280;29153;42.696;23.218;2022-11-20T09:58:43;93769.94;;;15.19;97.00
43553;BME280;29153;42.696;23.218;2022-11-20T10:01:19;93750.92;;;15.29;97.21
43553;BME280;29153;42.696;23.218;2022-11-20T10:04:15;93750.92;;;15.29;97.21
43553;BME280;29153;42.696;23.218;2022-11-20T10:09:35;93757.97;;;15.57;95.10
43553;BME280;29153;42.696;23.218;2022-11-20T10:12:12;93753.98;;;15.78;94.64
43553;BME280;29153;42.696;23.218;2022-11-20T10:17:41;93761.95;;;15.72;91.87
43553;BME280;29153;42.696;23.218;2022-11-20T10:20:12;93764.67;;;15.78;91.44
43553;BME280;29153;42.696;23.218;2022-11-20T10:31:04;93813.27;;;15.92;92.55
43553;BME280;29153;42.696;23.218;2022-11-20T10:33:39;93813.05;;;15.76;93.78
43553;BME280;29153;42.696;23.218;2022-11-20T10:36:29;93823.92;;;15.57;96.73
43553;BME280;29153;42.696;23.218;2022-11-20T10:39:06;93820.20;;;15.32;98.59
43553;BME280;29153;42.696;23.218;2022-11-20T10:41:37;93808.67;;;15.02;100.00
43553;BME280;29153;42.696;23.218;2022-11-20T10:44:17;93808.67;;;15.02;100.00
43553;BME280;29153;42.696;23.218;2022-11-20T10:46:47;93800.10;;;14.88;99.49
43553;BME280;29153;42.696;23.218;2022-11-20T10:49:17;93807.05;;;14.72;99.26
43553;BME280;29153;42.696;23.218;2022-11-20T10:52:03;93821.68;;;14.11;93.83
43553;BME280;29153;42.696;23.218;2022-11-20T10:54:36;93821.68;;;14.11;93.83
43553;BME280;29153;42.696;23.218;2022-11-20T10:57:08;93831.22;;;14.12;96.65
43553;BME280;29153;42.696;23.218;2022-11-20T10:59:59;93832.99;;;13.89;96.40
43553;BME280;29153;42.696;23.218;2022-11-20T11:02:37;93833.80;;;13.69;97.17
43553;BME280;29153;42.696;23.218;2022-11-20T11:05:08;93838.38;;;13.07;98.83
43553;BME280;29153;42.696;23.218;2022-11-20T11:07:40;93838.38;;;13.07;98.83
43553;BME280;29153;42.696;23.218;2022-11-20T11:10:16;93832.84;;;12.95;100.00
43553;BME280;29153;42.696;23.218;2022-11-20T11:12:45;93820.66;;;12.72;99.05
43553;BME280;29153;42.696;23.218;2022-11-20T11:15:26;93819.03;;;12.51;98.83
43553;BME280;29153;42.696;23.218;2022-11-20T11:17:54;93806.00;;;12.19;99.46
43553;BME280;29153;42.696;23.218;2022-11-20T11:20:23;93815.98;;;12.11;100.00
43553;BME280;29153;42.696;23.218;2022-11-20T11:22:58;93813.02;;;12.01;100.00
43553;BME280;29153;42.696;23.218;2022-11-20T11:25:25;93813.02;;;12.01;100.00
43553;BME280;29153;42.696;23.218;2022-11-20T11:27:57;93817.36;;;11.97;100.00
43553;BME280;29153;42.696;23.218;2022-11-20T11:30:24;93788.70;;;11.97;100.00
43553;BME280;29153;42.696;23.218;2022-11-20T11:33:09;93788.70;;;11.97;100.00
43553;BME280;29153;42.696;23.218;2022-11-20T11:35:33;93799.72;;;11.90;100.00
43553;BME280;29153;42.696;23.218;2022-11-20T11:38:12;93807.83;;;11.96;100.00
43553;BME280;29153;42.696;23.218;2022-11-20T11:40:37;93805.45;;;11.95;100.00
43553;BME280;29153;42.696;23.218;2022-11-20T11:43:07;93812.67;;;12.05;100.00
43553;BME280;29153;42.696;23.218;2022-11-20T11:45:37;93796.20;;;12.06;100.00
43553;BME280;29153;42.696;23.218;2022-11-20T11:48:07;93800.91;;;12.20;98.55
43553;BME280;29153;42.696;23.218;2022-11-20T11:50:35;93806.59;;;12.38;96.34
43553;BME280;29153;42.696;23.218;2022-11-20T11:55:45;93804.55;;;12.46;96.86
43553;BME280;29153;42.696;23.218;2022-11-20T12:03:36;93819.88;;;12.60;97.94
43553;BME280;29153;42.696;23.218;2022-11-20T12:06:15;93821.22;;;12.60;96.47
43553;BME280;29153;42.696;23.218;2022-11-20T12:09:04;93811.19;;;12.68;95.12
43553;BME280;29153;42.696;23.218;2022-11-20T12:14:37;93815.05;;;12.73;96.56
43553;BME280;29153;42.696;23.218;2022-11-20T12:17:04;93814.38;;;12.68;96.42
43553;BME280;29153;42.696;23.218;2022-11-20T12:19:34;93815.41;;;12.69;96.58
43553;BME280;29153;42.696;23.218;2022-11-20T12:30:34;93803.20;;;12.68;94.62
43553;BME280;29153;42.696;23.218;2022-11-20T12:38:59;93772.53;;;12.73;93.27
43553;BME280;29153;42.696;23.218;2022-11-20T12:41:48;93771.78;;;12.82;93.14
43553;BME280;29153;42.696;23.218;2022-11-20T12:44:39;93768.67;;;12.88;95.24
43553;BME280;29153;42.696;23.218;2022-11-20T12:47:33;93767.88;;;12.79;96.41
43553;BME280;29153;42.696;23.218;2022-11-20T12:52:45;93767.35;;;12.88;100.00
43553;BME280;29153;42.696;23.218;2022-11-20T12:55:13;93757.13;;;12.93;97.43
43553;BME280;29153;42.696;23.218;2022-11-20T12:57:57;93754.08;;;13.08;98.13
43553;BME280;29153;42.696;23.218;2022-11-20T13:00:26;93754.98;;;13.14;94.02
43553;BME280;29153;42.696;23.218;2022-11-20T13:08:29;93741.80;;;13.57;94.05
43553;BME280;29153;42.696;23.218;2022-11-20T13:13:50;93728.99;;;13.68;95.49
43553;BME280;29153;42.696;23.218;2022-11-20T13:19:11;93740.59;;;13.81;95.83
43553;BME280;29153;42.696;23.218;2022-11-20T13:21:49;93768.31;;;13.97;92.91
43553;BME280;29153;42.696;23.218;2022-11-20T13:24:24;93768.31;;;13.97;92.91
43553;BME280;29153;42.696;23.218;2022-11-20T13:29:58;93774.67;;;14.07;93.34
43553;BME280;29153;42.696;23.218;2022-11-20T13:32:17;93771.08;;;14.11;94.55
43553;BME280;29153;42.696;23.218;2022-11-20T13:35:01;93773.66;;;14.14;95.95
43553;BME280;29153;42.696;23.218;2022-11-20T13:37:35;93779.13;;;14.09;93.43
43553;BME280;29153;42.696;23.218;2022-11-20T13:42:55;93793.11;;;13.86;92.14
43553;BME280;29153;42.696;23.218;2022-11-20T13:45:27;93791.80;;;13.78;92.15
43553;BME280;29153;42.696;23.218;2022-11-20T13:47:55;93789.45;;;13.28;94.31
43553;BME280;29153;42.696;23.218;2022-11-20T13:50:42;93800.92;;;13.17;95.82
43553;BME280;29153;42.696;23.218;2022-11-20T14:01:26;93808.24;;;13.12;95.89
43553;BME280;29153;42.696;23.218;2022-11-20T14:03:54;93815.44;;;13.11;95.49
43553;BME280;29153;42.696;23.218;2022-11-20T14:06:33;93814.16;;;13.09;96.24
43553;BME280;29153;42.696;23.218;2022-11-20T14:09:01;93813.02;;;13.12;97.70
43553;BME280;29153;42.696;23.218;2022-11-20T14:11:30;93817.36;;;13.08;96.55
43553;BME280;29153;42.696;23.218;2022-11-20T14:14:21;93820.06;;;13.06;95.39
43553;BME280;29153;42.696;23.218;2022-11-20T14:16:50;93820.71;;;12.92;95.46
43553;BME280;29153;42.696;23.218;2022-11-20T14:19:24;93816.23;;;12.90;96.22
43553;BME280;29153;42.696;23.218;2022-11-20T14:22:07;93806.41;;;12.79;96.59
43553;BME280;29153;42.696;23.218;2022-11-20T14:24:24;93790.27;;;12.75;95.33
43553;BME280;29153;42.696;23.218;2022-11-20T14:26:52;93794.28;;;12.64;93.37
43553;BME280;29153;42.696;23.218;2022-11-20T14:29:27;93794.28;;;12.64;93.37
43553;BME280;29153;42.696;23.218;2022-11-20T14:31:54;93820.36;;;12.73;95.04
43553;BME280;29153;42.696;23.218;2022-11-20T14:34:25;93820.36;;;12.73;95.04
43553;BME280;29153;42.696;23.218;2022-11-20T14:37:02;93827.01;;;12.73;95.02
43553;BME280;29153;42.696;23.218;2022-11-20T14:39:32;93820.36;;;12.73;95.94
43553;BME280;29153;42.696;23.218;2022-11-20T14:42:01;93812.75;;;12.58;95.30
43553;BME280;29153;42.696;23.218;2022-11-20T14:44:33;93812.75;;;12.58;95.30
43553;BME280;29153;42.696;23.218;2022-11-20T14:47:02;93817.59;;;12.56;95.03
43553;BME280;29153;42.696;23.218;2022-11-20T14:49:32;93806.31;;;12.62;95.43
43553;BME280;29153;42.696;23.218;2022-11-20T14:52:15;93807.80;;;12.54;94.58
43553;BME280;29153;42.696;23.218;2022-11-20T14:54:52;93808.90;;;12.31;93.78
43553;BME280;29153;42.696;23.218;2022-11-20T14:57:32;93817.89;;;12.44;93.71
43553;BME280;29153;42.696;23.218;2022-11-20T15:02:45;93834.59;;;12.33;95.06
43553;BME280;29153;42.696;23.218;2022-11-20T15:05:13;93842.74;;;12.25;93.66
43553;BME280;29153;42.696;23.218;2022-11-20T15:07:43;93838.94;;;12.18;94.56
43553;BME280;29153;42.696;23.218;2022-11-20T15:10:26;93844.75;;;12.31;95.77
43553;BME280;29153;42.696;23.218;2022-11-20T15:12:57;93844.75;;;12.31;95.77
43553;BME280;29153;42.696;23.218;2022-11-20T15:15:49;93847.52;;;12.26;95.90
43553;BME280;29153;42.696;23.218;2022-11-20T15:18:18;93855.23;;;12.25;95.75
43553;BME280;29153;42.696;23.218;2022-11-20T15:20:46;93856.80;;;12.26;94.89
43553;BME280;29153;42.696;23.218;2022-11-20T15:23:16;93877.03;;;12.11;96.62
43553;BME280;29153;42.696;23.218;2022-11-20T15:25:48;93882.92;;;12.21;96.05
43553;BME280;29153;42.696;23.218;2022-11-20T15:28:21;93890.35;;;11.97;98.61
43553;BME280;29153;42.696;23.218;2022-11-20T15:30:49;93893.98;;;12.01;98.80
43553;BME280;29153;42.696;23.218;2022-11-20T15:33:16;93904.89;;;12.00;98.88
43553;BME280;29153;42.696;23.218;2022-11-20T15:35:44;93919.30;;;11.96;99.43
43553;BME280;29153;42.696;23.218;2022-11-20T15:38:12;93901.61;;;11.92;100.00
43553;BME280;29153;42.696;23.218;2022-11-20T15:40:39;93928.45;;;11.76;100.00
43553;BME280;29153;42.696;23.218;2022-11-20T15:43:07;93961.43;;;11.70;100.00
43553;BME280;29153;42.696;23.218;2022-11-20T15:45:46;93948.57;;;11.48;100.00
43553;BME280;29153;42.696;23.218;2022-11-20T15:48:18;93957.26;;;11.37;100.00